createdAt,value
2018-08-04T11:00:04.839Z,32.8
2018-08-04T11:15:04.550Z,32.7
2018-08-04T11:30:04.690Z,33.2
2018-08-04T11:45:04.839Z,33.4
2018-08-04T12:00:04.872Z,33.7
2018-08-04T12:15:04.881Z,33.7
2018-08-04T12:30:04.510Z,33.7
2018-08-04T12:45:05.041Z,33.8
2018-08-04T13:00:04.668Z,33.9
2018-08-04T13:15:04.742Z,33.8
2018-08-04T13:30:04.893Z,33.9
2018-08-04T13:45:04.288Z,34.1
2018-08-04T14:00:04.948Z,34
2018-08-04T14:15:04.548Z,34.2
2018-08-04T14:30:04.877Z,34.3
2018-08-04T14:45:04.886Z,34.3
2018-08-04T15:00:04.477Z,34.4
2018-08-04T15:15:05.063Z,34.5
2018-08-04T15:30:04.244Z,34.5
2018-08-04T15:45:05.329Z,34.4
2018-08-04T16:00:04.337Z,34.3
2018-08-04T16:15:05.087Z,34.3
2018-08-04T16:30:04.871Z,34.3
2018-08-04T16:45:04.950Z,34.4
2018-08-04T17:00:04.696Z,34.3
2018-08-04T17:15:05.220Z,34.3
2018-08-04T17:30:04.867Z,34.3
2018-08-04T17:45:04.302Z,34.3
2018-08-04T18:00:04.235Z,34.2
2018-08-04T18:15:04.333Z,34.1
2018-08-04T18:30:05.256Z,34.1
2018-08-04T18:45:05.225Z,34
2018-08-04T19:00:05.381Z,33.8
2018-08-04T19:15:05.019Z,33.7
2018-08-04T19:30:04.233Z,33.5
2018-08-04T19:45:04.629Z,33.4
2018-08-04T20:00:05.314Z,33.2
2018-08-04T20:15:04.806Z,33
2018-08-04T20:30:05.452Z,32.8
2018-08-04T20:45:04.476Z,32.6
2018-08-04T21:00:05.009Z,32.4
2018-08-04T21:15:05.052Z,32.3
2018-08-04T21:30:04.805Z,32.1
2018-08-04T21:45:04.744Z,31.9
2018-08-04T22:00:04.258Z,31.8
2018-08-04T22:15:04.187Z,31.6
2018-08-04T22:30:04.878Z,31.4
2018-08-04T22:45:04.288Z,31.3
2018-08-04T23:00:04.787Z,31.2
2018-08-04T23:15:04.254Z,31
2018-08-04T23:30:05.167Z,30.9
2018-08-04T23:45:04.629Z,30.8
